Time;durP1;ratioP1;P1;durP2;ratioP2;P2;SDS_P1;SDS_P2;PMS_P1;PMS_P2;Temp;Humidity;BMP_temperature;BMP_pressure;BME280_temperature;BME280_humidity;BME280_pressure;Samples;Min_cycle;Max_cycle;Signal;HPM_P1;HPM_P2
2023/09/10 00:00:23;;;;;;;2.90;2.70;;;;;;;;;;5003654;28;20098;-80
2023/09/10 00:02:50;;;;;;;2.88;2.67;;;;;;;;;;5000477;28;20030;-79
2023/09/10 00:05:16;;;;;;;3.35;3.15;;;;;;;;;;4998870;28;20382;-78
2023/09/10 00:07:42;;;;;;;2.80;2.60;;;;;;;;;;4998019;28;20524;-79
2023/09/10 00:10:08;;;;;;;3.00;2.80;;;;;;;;;;4996712;28;20096;-79
2023/09/10 00:12:34;;;;;;;4.05;3.75;;;;;;;;;;4998082;28;20187;-79
2023/09/10 00:15:00;;;;;;;3.55;3.35;;;;;;;;;;4995773;28;20054;-78
2023/09/10 00:17:27;;;;;;;3.40;3.10;;;;;;;;;;4998068;28;20022;-79
2023/09/10 00:19:53;;;;;;;3.40;3.20;;;;;;;;;;4997466;28;20653;-79
2023/09/10 00:22:19;;;;;;;4.32;3.92;;;;;;;;;;4997126;28;20440;-79
2023/09/10 00:24:45;;;;;;;4.13;3.83;;;;;;;;;;4997399;28;20061;-79
2023/09/10 00:27:11;;;;;;;3.47;3.28;;;;;;;;;;5001339;28;20054;-79
2023/09/10 00:29:37;;;;;;;3.70;3.40;;;;;;;;;;5002836;28;20101;-78
2023/09/10 00:32:03;;;;;;;4.18;3.88;;;;;;;;;;5001126;28;20037;-76
2023/09/10 00:34:31;;;;;;;4.15;3.75;;;;;;;;;;5015433;28;20026;-78
2023/09/10 00:36:57;;;;;;;3.55;3.25;;;;;;;;;;5016691;28;20026;-78
2023/09/10 00:39:23;;;;;;;3.58;3.30;;;;;;;;;;5018229;28;20078;-76
2023/09/10 00:41:49;;;;;;;3.08;2.88;;;;;;;;;;5017173;28;20093;-77
2023/09/10 00:44:15;;;;;;;3.65;3.35;;;;;;;;;;5016734;28;20136;-78
2023/09/10 00:46:42;;;;;;;3.15;2.95;;;;;;;;;;5017960;28;20038;-78
2023/09/10 00:49:08;;;;;;;3.30;3.10;;;;;;;;;;5000453;28;20034;-78
2023/09/10 00:51:36;;;;;;;3.30;3.00;;;;;;;;;;5000058;28;20022;-79
2023/09/10 00:54:02;;;;;;;3.67;3.38;;;;;;;;;;5000189;28;20102;-79
2023/09/10 00:56:28;;;;;;;4.20;3.90;;;;;;;;;;5005113;28;20028;-79
2023/09/10 00:58:54;;;;;;;3.72;3.42;;;;;;;;;;4996663;28;20014;-79
2023/09/10 01:01:21;;;;;;;3.75;3.45;;;;;;;;;;4996800;28;20018;-78
2023/09/10 01:03:47;;;;;;;3.63;3.33;;;;;;;;;;5001848;28;20022;-79
2023/09/10 01:06:13;;;;;;;4.80;4.40;;;;;;;;;;5000659;28;20026;-79
2023/09/10 01:08:39;;;;;;;5.10;4.70;;;;;;;;;;5007167;28;20019;-79
2023/09/10 01:11:11;;;;;;;4.97;4.55;;;;;;;;;;5001685;28;20034;-78
2023/09/10 01:13:46;;;;;;;4.95;4.55;;;;;;;;;;5001660;28;20050;-77
2023/09/10 01:16:32;;;;;;;6.72;6.13;;;;;;;;;;5002214;28;20061;-79
2023/09/10 01:19:04;;;;;;;7.22;6.60;;;;;;;;;;5002670;28;20050;-79
2023/09/10 01:21:41;;;;;;;7.28;6.63;;;;;;;;;;5002744;28;20038;-79
2023/09/10 01:24:29;;;;;;;6.97;6.38;;;;;;;;;;4994874;28;20034;-77
2023/09/10 01:26:56;;;;;;;7.32;6.72;;;;;;;;;;4990473;28;20026;-78
2023/09/10 01:29:22;;;;;;;6.95;6.35;;;;;;;;;;5007215;28;20018;-79
2023/09/10 01:31:51;;;;;;;6.68;6.07;;;;;;;;;;5002149;28;20021;-79
2023/09/10 01:34:20;;;;;;;6.32;5.82;;;;;;;;;;5001703;28;20026;-80
2023/09/10 01:36:49;;;;;;;6.13;5.53;;;;;;;;;;4995222;28;20022;-79
2023/09/10 01:39:20;;;;;;;5.60;5.20;;;;;;;;;;4997981;28;20077;-80
2023/09/10 01:41:47;;;;;;;6.35;5.75;;;;;;;;;;5001072;28;20030;-79
2023/09/10 01:44:15;;;;;;;6.50;5.90;;;;;;;;;;4998841;28;20023;-79
2023/09/10 01:46:41;;;;;;;6.00;5.50;;;;;;;;;;4999305;28;20097;-80
2023/09/10 01:49:08;;;;;;;6.05;5.55;;;;;;;;;;4999206;28;20491;-79
2023/09/10 01:51:34;;;;;;;6.10;5.60;;;;;;;;;;5005970;28;20025;-80
2023/09/10 01:54:00;;;;;;;7.00;6.32;;;;;;;;;;4999544;28;20018;-78
2023/09/10 01:56:26;;;;;;;6.88;6.28;;;;;;;;;;4999429;28;20034;-77
2023/09/10 01:58:52;;;;;;;6.65;6.03;;;;;;;;;;5012432;28;20027;-79
2023/09/10 02:01:18;;;;;;;5.50;5.03;;;;;;;;;;5007586;28;20031;-80
2023/09/10 02:03:45;;;;;;;6.00;5.50;;;;;;;;;;5006549;28;20302;-80
2023/09/10 02:06:11;;;;;;;5.75;5.25;;;;;;;;;;5007121;28;20030;-81
2023/09/10 02:08:37;;;;;;;6.28;5.75;;;;;;;;;;5012193;28;20090;-76
2023/09/10 02:11:04;;;;;;;6.85;6.25;;;;;;;;;;5004390;28;20022;-79
2023/09/10 02:13:30;;;;;;;6.80;6.20;;;;;;;;;;5002799;28;20026;-78
2023/09/10 02:15:56;;;;;;;7.03;6.38;;;;;;;;;;5006211;28;20061;-80
2023/09/10 02:18:22;;;;;;;6.60;6.00;;;;;;;;;;5006361;28;20018;-79
2023/09/10 02:20:49;;;;;;;7.03;6.40;;;;;;;;;;5000426;28;20027;-80
2023/09/10 02:23:15;;;;;;;6.25;5.75;;;;;;;;;;5001887;28;20022;-80
2023/09/10 02:25:41;;;;;;;5.78;5.28;;;;;;;;;;4985216;28;20046;-79
2023/09/10 02:28:08;;;;;;;6.40;5.90;;;;;;;;;;4994164;28;20030;-79
2023/09/10 02:30:34;;;;;;;6.82;6.13;;;;;;;;;;4994483;28;20371;-79
2023/09/10 02:33:00;;;;;;;6.20;5.68;;;;;;;;;;4994247;28;20030;-79
2023/09/10 02:35:26;;;;;;;6.00;5.50;;;;;;;;;;4997998;28;20030;-79
2023/09/10 02:37:52;;;;;;;6.32;5.78;;;;;;;;;;5005661;28;20017;-80
2023/09/10 02:40:18;;;;;;;6.10;5.60;;;;;;;;;;4997763;28;20499;-79
2023/09/10 02:42:44;;;;;;;5.93;5.43;;;;;;;;;;4998224;28;20037;-78
2023/09/10 02:45:11;;;;;;;5.82;5.32;;;;;;;;;;4996698;28;20393;-78
2023/09/10 02:47:37;;;;;;;6.00;5.50;;;;;;;;;;4997116;28;20113;-82
2023/09/10 02:50:04;;;;;;;5.07;4.68;;;;;;;;;;4989721;28;20502;-82
2023/09/10 02:52:30;;;;;;;5.53;5.13;;;;;;;;;;5007647;28;20026;-83
2023/09/10 02:55:00;;;;;;;5.63;5.13;;;;;;;;;;5013406;28;20050;-85
2023/09/10 02:57:26;;;;;;;5.68;5.18;;;;;;;;;;5009950;28;20021;-84
2023/09/10 02:59:52;;;;;;;6.00;5.47;;;;;;;;;;5033468;28;20015;-83
2023/09/10 03:02:18;;;;;;;5.78;5.28;;;;;;;;;;5015989;28;20034;-84
2023/09/10 03:04:44;;;;;;;5.20;4.70;;;;;;;;;;5012520;28;20089;-82
2023/09/10 03:07:10;;;;;;;5.28;4.88;;;;;;;;;;4993814;28;20023;-81
2023/09/10 03:09:36;;;;;;;5.03;4.63;;;;;;;;;;4981953;28;20053;-82
2023/09/10 03:12:21;;;;;;;4.93;4.53;;;;;;;;;;4989244;28;20019;-82
2023/09/10 03:14:47;;;;;;;4.78;4.38;;;;;;;;;;4997520;28;20058;-78
2023/09/10 03:17:13;;;;;;;5.63;5.18;;;;;;;;;;4994542;28;20034;-79
2023/09/10 03:19:40;;;;;;;5.65;5.15;;;;;;;;;;4994161;28;20061;-79
2023/09/10 03:22:06;;;;;;;5.50;5.00;;;;;;;;;;4988947;28;20077;-79
2023/09/10 03:24:36;;;;;;;5.10;4.70;;;;;;;;;;4995504;28;20077;-79
2023/09/10 03:27:02;;;;;;;5.40;4.90;;;;;;;;;;4998321;28;20065;-78
2023/09/10 03:29:28;;;;;;;5.30;4.88;;;;;;;;;;4991733;28;20133;-80
2023/09/10 03:31:54;;;;;;;5.43;4.93;;;;;;;;;;5017930;28;20010;-80
2023/09/10 03:34:20;;;;;;;5.25;4.82;;;;;;;;;;5015310;28;20023;-79
2023/09/10 03:36:46;;;;;;;5.20;4.80;;;;;;;;;;5016348;28;20034;-77
2023/09/10 03:39:13;;;;;;;5.20;4.80;;;;;;;;;;5016383;28;20130;-78
2023/09/10 03:41:39;;;;;;;5.70;5.20;;;;;;;;;;5017120;28;20046;-78
2023/09/10 03:44:05;;;;;;;5.80;5.30;;;;;;;;;;5016677;28;20015;-78
2023/09/10 03:46:31;;;;;;;5.38;4.88;;;;;;;;;;4993834;28;20385;-79
2023/09/10 03:48:57;;;;;;;4.95;4.55;;;;;;;;;;4990900;28;20072;-78
2023/09/10 03:51:23;;;;;;;5.13;4.72;;;;;;;;;;4992040;28;20026;-78
2023/09/10 03:53:49;;;;;;;5.05;4.65;;;;;;;;;;4978802;28;20161;-78
2023/09/10 03:56:15;;;;;;;4.65;4.25;;;;;;;;;;4994734;28;20026;-78
2023/09/10 03:58:41;;;;;;;5.25;4.85;;;;;;;;;;4995653;28;20033;-77
2023/09/10 04:01:07;;;;;;;4.63;4.32;;;;;;;;;;4980070;28;20070;-78
2023/09/10 04:03:33;;;;;;;4.88;4.47;;;;;;;;;;4974568;28;20030;-78
2023/09/10 04:05:59;;;;;;;4.55;4.20;;;;;;;;;;4981757;28;20034;-78
2023/09/10 04:08:26;;;;;;;4.95;4.55;;;;;;;;;;4996856;28;20137;-79
2023/09/10 04:10:52;;;;;;;5.50;5.00;;;;;;;;;;4983897;28;20027;-80
2023/09/10 04:13:18;;;;;;;5.40;4.97;;;;;;;;;;4991813;28;20038;-78
2023/09/10 04:15:44;;;;;;;5.40;4.90;;;;;;;;;;4992982;28;20027;-78
2023/09/10 04:18:10;;;;;;;4.82;4.43;;;;;;;;;;4993298;28;20705;-78
2023/09/10 04:20:36;;;;;;;4.25;3.95;;;;;;;;;;4992745;28;20015;-77
2023/09/10 04:23:02;;;;;;;4.28;3.95;;;;;;;;;;4992862;28;20482;-77
2023/09/10 04:25:28;;;;;;;3.97;3.67;;;;;;;;;;4987372;28;20018;-78
2023/09/10 04:27:55;;;;;;;4.20;3.90;;;;;;;;;;4992307;28;20142;-78
2023/09/10 04:30:21;;;;;;;3.83;3.53;;;;;;;;;;4992415;28;20437;-78
2023/09/10 04:32:47;;;;;;;4.47;4.07;;;;;;;;;;4973732;28;20105;-77
2023/09/10 04:35:13;;;;;;;4.18;3.88;;;;;;;;;;4973899;28;20114;-78
2023/09/10 04:37:39;;;;;;;4.68;4.28;;;;;;;;;;4995534;28;20018;-78
2023/09/10 04:40:07;;;;;;;4.25;3.95;;;;;;;;;;4993244;28;20373;-77
2023/09/10 04:42:33;;;;;;;4.60;4.20;;;;;;;;;;4992985;28;20021;-78
2023/09/10 04:44:59;;;;;;;4.65;4.30;;;;;;;;;;4993209;28;20050;-77
2023/09/10 04:47:25;;;;;;;4.10;3.80;;;;;;;;;;4991987;28;20026;-77
2023/09/10 04:49:51;;;;;;;4.05;3.75;;;;;;;;;;4993174;28;20022;-78
2023/09/10 04:52:18;;;;;;;4.28;3.90;;;;;;;;;;4992245;28;20042;-78
2023/09/10 04:54:44;;;;;;;4.22;3.92;;;;;;;;;;4992679;28;20117;-78
2023/09/10 04:57:11;;;;;;;4.30;4.00;;;;;;;;;;4992689;28;20026;-78
2023/09/10 04:59:37;;;;;;;5.10;4.70;;;;;;;;;;4992330;28;20093;-78
2023/09/10 05:02:07;;;;;;;5.20;4.80;;;;;;;;;;4984906;28;20034;-78
2023/09/10 05:04:33;;;;;;;6.10;5.60;;;;;;;;;;4977224;28;20029;-78
2023/09/10 05:06:59;;;;;;;5.38;4.88;;;;;;;;;;4988193;28;20428;-78
2023/09/10 05:09:25;;;;;;;5.20;4.80;;;;;;;;;;5015794;28;20057;-77
2023/09/10 05:11:51;;;;;;;4.57;4.22;;;;;;;;;;4991078;28;20030;-78
2023/09/10 05:14:17;;;;;;;5.32;4.88;;;;;;;;;;4992748;28;20066;-78
2023/09/10 05:16:43;;;;;;;4.55;4.15;;;;;;;;;;4973737;28;20023;-77
2023/09/10 05:19:09;;;;;;;4.90;4.50;;;;;;;;;;4975938;28;20598;-77
2023/09/10 05:21:36;;;;;;;4.53;4.22;;;;;;;;;;4975372;28;20081;-78
2023/09/10 05:24:02;;;;;;;4.35;4.05;;;;;;;;;;4975971;28;20070;-78
2023/09/10 05:26:28;;;;;;;4.57;4.18;;;;;;;;;;4991302;28;20339;-78
2023/09/10 05:28:54;;;;;;;4.18;3.78;;;;;;;;;;4976657;28;20038;-78
2023/09/10 05:31:20;;;;;;;4.57;4.18;;;;;;;;;;4976606;28;20089;-78
2023/09/10 05:33:46;;;;;;;5.15;4.75;;;;;;;;;;4976801;28;20030;-78
2023/09/10 05:36:12;;;;;;;4.88;4.47;;;;;;;;;;4982280;28;20097;-78
2023/09/10 05:38:38;;;;;;;4.70;4.30;;;;;;;;;;5001253;28;20021;-78
2023/09/10 05:41:05;;;;;;;5.00;4.60;;;;;;;;;;5015325;28;20096;-78
2023/09/10 05:43:31;;;;;;;4.10;3.80;;;;;;;;;;5000847;28;20030;-78
2023/09/10 05:45:58;;;;;;;4.60;4.20;;;;;;;;;;4976528;28;20105;-77
2023/09/10 05:48:24;;;;;;;4.75;4.35;;;;;;;;;;4976024;28;20042;-78
2023/09/10 05:50:55;;;;;;;5.20;4.80;;;;;;;;;;4976238;28;20037;-78
2023/09/10 05:53:22;;;;;;;3.92;3.63;;;;;;;;;;4976301;28;20049;-78
2023/09/10 05:55:48;;;;;;;4.35;4.05;;;;;;;;;;4975993;28;20029;-78
2023/09/10 05:58:14;;;;;;;4.38;3.97;;;;;;;;;;4975766;28;20097;-76
2023/09/10 06:00:40;;;;;;;4.30;4.00;;;;;;;;;;4975521;28;20439;-77
2023/09/10 06:03:09;;;;;;;4.72;4.32;;;;;;;;;;4974657;28;20031;-77
2023/09/10 06:05:35;;;;;;;5.63;5.13;;;;;;;;;;4984531;28;20042;-78
2023/09/10 06:08:02;;;;;;;4.55;4.20;;;;;;;;;;4980204;28;20482;-78
2023/09/10 06:10:28;;;;;;;4.28;3.97;;;;;;;;;;4994832;28;20042;-77
2023/09/10 06:12:54;;;;;;;4.47;4.15;;;;;;;;;;4993794;28;20030;-78
2023/09/10 06:15:20;;;;;;;4.22;3.92;;;;;;;;;;4981073;28;20445;-77
2023/09/10 06:17:46;;;;;;;4.18;3.88;;;;;;;;;;4975809;28;20023;-78
2023/09/10 06:20:12;;;;;;;4.18;3.88;;;;;;;;;;4975498;28;20500;-78
2023/09/10 06:22:39;;;;;;;3.88;3.58;;;;;;;;;;4974406;28;20031;-78
2023/09/10 06:25:05;;;;;;;3.53;3.22;;;;;;;;;;4985286;28;20513;-76
2023/09/10 06:27:31;;;;;;;3.53;3.33;;;;;;;;;;4995457;28;20191;-79
2023/09/10 06:29:58;;;;;;;4.20;3.90;;;;;;;;;;5000245;28;20034;-79
2023/09/10 06:32:24;;;;;;;4.80;4.40;;;;;;;;;;5015375;28;20060;-77
2023/09/10 06:34:50;;;;;;;4.40;4.10;;;;;;;;;;5003327;28;20038;-77
2023/09/10 06:37:16;;;;;;;5.07;4.68;;;;;;;;;;4993288;28;20031;-76
2023/09/10 06:39:42;;;;;;;5.38;4.88;;;;;;;;;;5028486;28;20026;-78
2023/09/10 06:42:10;;;;;;;4.97;4.57;;;;;;;;;;5027325;28;20030;-76
2023/09/10 06:44:38;;;;;;;4.80;4.40;;;;;;;;;;5029369;28;20029;-77
2023/09/10 06:47:04;;;;;;;5.20;4.80;;;;;;;;;;5007997;28;20033;-78
2023/09/10 06:49:30;;;;;;;5.03;4.63;;;;;;;;;;4993007;28;20050;-78
2023/09/10 06:51:56;;;;;;;4.78;4.38;;;;;;;;;;4990984;28;20474;-79
2023/09/10 06:54:23;;;;;;;4.50;4.18;;;;;;;;;;4994227;28;20105;-77
2023/09/10 06:56:49;;;;;;;4.82;4.43;;;;;;;;;;4995173;28;20027;-77
2023/09/10 06:59:15;;;;;;;4.50;4.15;;;;;;;;;;4997332;28;20102;-78
2023/09/10 07:01:41;;;;;;;5.40;5.00;;;;;;;;;;4995204;28;20041;-78
2023/09/10 07:04:24;;;;;;;5.15;4.75;;;;;;;;;;4995310;28;20056;-78
2023/09/10 07:06:50;;;;;;;4.47;4.18;;;;;;;;;;4994211;28;20084;-77
2023/09/10 07:09:17;;;;;;;4.80;4.40;;;;;;;;;;4985745;28;20023;-78
2023/09/10 07:11:43;;;;;;;5.07;4.68;;;;;;;;;;4975818;28;20466;-78
2023/09/10 07:14:10;;;;;;;6.32;5.72;;;;;;;;;;4974476;28;20271;-78
2023/09/10 07:16:36;;;;;;;6.22;5.72;;;;;;;;;;4974525;28;20046;-78
2023/09/10 07:19:02;;;;;;;6.38;5.80;;;;;;;;;;4988767;28;20030;-78
2023/09/10 07:21:28;;;;;;;6.20;5.70;;;;;;;;;;4993845;28;20063;-78
2023/09/10 07:23:54;;;;;;;5.55;5.15;;;;;;;;;;4994893;28;20474;-78
2023/09/10 07:26:20;;;;;;;5.65;5.22;;;;;;;;;;4990074;28;20027;-78
2023/09/10 07:28:47;;;;;;;5.85;5.35;;;;;;;;;;4973889;28;20042;-77
2023/09/10 07:31:13;;;;;;;5.72;5.30;;;;;;;;;;4973758;28;20474;-78
2023/09/10 07:33:39;;;;;;;5.07;4.68;;;;;;;;;;4977134;28;20394;-77
2023/09/10 07:36:05;;;;;;;6.28;5.78;;;;;;;;;;4976773;28;20077;-78
2023/09/10 07:38:32;;;;;;;5.63;5.13;;;;;;;;;;4985911;28;20030;-78
2023/09/10 07:40:58;;;;;;;5.35;4.95;;;;;;;;;;4994648;28;20030;-77
2023/09/10 07:43:24;;;;;;;5.40;5.00;;;;;;;;;;4993298;28;20018;-77
2023/09/10 07:45:50;;;;;;;5.32;4.93;;;;;;;;;;4994663;28;20086;-78
2023/09/10 07:48:16;;;;;;;4.78;4.38;;;;;;;;;;4980339;28;20073;-78
2023/09/10 07:50:43;;;;;;;4.43;4.13;;;;;;;;;;4976426;28;20393;-77
2023/09/10 07:53:09;;;;;;;4.72;4.32;;;;;;;;;;4984561;28;20031;-77
2023/09/10 07:55:35;;;;;;;4.63;4.32;;;;;;;;;;4975248;28;20031;-78
2023/09/10 07:58:02;;;;;;;4.82;4.43;;;;;;;;;;4997410;28;20038;-78
2023/09/10 08:00:29;;;;;;;5.35;4.85;;;;;;;;;;5015165;28;20109;-80
2023/09/10 08:03:02;;;;;;;5.70;5.20;;;;;;;;;;5010998;28;20030;-78
2023/09/10 08:05:29;;;;;;;5.45;5.05;;;;;;;;;;5006836;28;20405;-79
2023/09/10 08:07:55;;;;;;;5.55;5.15;;;;;;;;;;4987570;28;20019;-78
2023/09/10 08:10:21;;;;;;;5.07;4.68;;;;;;;;;;5011589;28;20037;-78
2023/09/10 08:12:47;;;;;;;5.35;4.95;;;;;;;;;;5012985;28;20033;-78
2023/09/10 08:15:13;;;;;;;5.30;4.90;;;;;;;;;;5012942;28;20076;-78
2023/09/10 08:17:39;;;;;;;5.07;4.68;;;;;;;;;;5014167;28;20101;-77
2023/09/10 08:20:07;;;;;;;5.40;5.00;;;;;;;;;;4994380;28;20091;-78
2023/09/10 08:22:33;;;;;;;6.00;5.50;;;;;;;;;;4993486;28;20014;-77
2023/09/10 08:24:59;;;;;;;6.32;5.82;;;;;;;;;;4993384;28;20049;-79
2023/09/10 08:27:25;;;;;;;6.30;5.80;;;;;;;;;;4993048;28;20030;-78
2023/09/10 08:29:51;;;;;;;5.75;5.32;;;;;;;;;;4992110;28;20497;-77
2023/09/10 08:32:17;;;;;;;5.43;5.03;;;;;;;;;;4991973;28;20034;-80
2023/09/10 08:34:43;;;;;;;6.18;5.68;;;;;;;;;;4993694;28;20050;-79
2023/09/10 08:37:11;;;;;;;5.28;4.88;;;;;;;;;;4992778;28;20049;-77
2023/09/10 08:39:37;;;;;;;5.20;4.80;;;;;;;;;;4982453;28;20338;-77
2023/09/10 08:42:11;;;;;;;5.18;4.78;;;;;;;;;;4974262;28;20022;-77
2023/09/10 08:44:43;;;;;;;5.72;5.32;;;;;;;;;;4973709;28;20038;-78
2023/09/10 08:47:10;;;;;;;5.10;4.70;;;;;;;;;;4974027;28;20031;-77
2023/09/10 08:49:40;;;;;;;5.38;4.97;;;;;;;;;;4981907;28;20022;-78
2023/09/10 08:52:07;;;;;;;5.35;4.95;;;;;;;;;;4994049;28;20030;-78
2023/09/10 08:54:33;;;;;;;4.38;4.07;;;;;;;;;;4997571;28;20026;-79
2023/09/10 08:57:00;;;;;;;4.97;4.57;;;;;;;;;;4996360;28;20089;-79
2023/09/10 08:59:27;;;;;;;4.85;4.53;;;;;;;;;;4992522;28;20031;-76
2023/09/10 09:01:53;;;;;;;5.53;5.05;;;;;;;;;;4975980;28;20023;-77
2023/09/10 09:04:19;;;;;;;4.78;4.47;;;;;;;;;;4977235;28;20034;-77
2023/09/10 09:06:48;;;;;;;5.32;4.93;;;;;;;;;;4986247;28;20033;-77
2023/09/10 09:09:15;;;;;;;5.55;5.15;;;;;;;;;;4988189;28;20085;-78
2023/09/10 09:11:42;;;;;;;6.13;5.63;;;;;;;;;;4996052;28;20440;-78
2023/09/10 09:14:09;;;;;;;5.55;5.15;;;;;;;;;;4996579;28;20496;-77
2023/09/10 09:16:35;;;;;;;4.88;4.57;;;;;;;;;;4996494;28;20486;-78
2023/09/10 09:19:06;;;;;;;5.40;5.00;;;;;;;;;;4996433;28;20026;-78
2023/09/10 09:21:32;;;;;;;5.57;5.18;;;;;;;;;;4981139;28;20386;-78
2023/09/10 09:24:03;;;;;;;5.80;5.38;;;;;;;;;;4989314;28;20469;-78
2023/09/10 09:26:30;;;;;;;6.68;6.15;;;;;;;;;;4995013;28;20029;-78
2023/09/10 09:28:56;;;;;;;7.03;6.53;;;;;;;;;;4996383;28;20026;-78
2023/09/10 09:31:22;;;;;;;7.10;6.50;;;;;;;;;;4984029;28;20031;-78
2023/09/10 09:33:49;;;;;;;6.60;6.10;;;;;;;;;;4977550;28;20023;-78
2023/09/10 09:36:15;;;;;;;6.28;5.78;;;;;;;;;;4992602;28;20042;-78
2023/09/10 09:38:44;;;;;;;6.47;5.97;;;;;;;;;;5011030;28;20022;-79
2023/09/10 09:41:10;;;;;;;6.28;5.78;;;;;;;;;;5011938;28;20027;-79
2023/09/10 09:43:37;;;;;;;6.70;5.93;;;;;;;;;;5000079;28;20041;-79
2023/09/10 09:46:03;;;;;;;6.82;6.20;;;;;;;;;;4999774;28;20043;-80
2023/09/10 09:48:30;;;;;;;7.22;6.50;;;;;;;;;;4999666;28;20087;-77
2023/09/10 09:50:57;;;;;;;6.68;6.18;;;;;;;;;;4994610;28;20023;-79
2023/09/10 09:53:24;;;;;;;6.47;5.97;;;;;;;;;;4982025;28;20127;-79
2023/09/10 09:55:53;;;;;;;5.88;5.43;;;;;;;;;;4996234;28;20106;-77
2023/09/10 09:58:21;;;;;;;6.15;5.65;;;;;;;;;;4995992;28;20014;-78
2023/09/10 10:00:47;;;;;;;6.18;5.68;;;;;;;;;;4996747;28;20297;-77
2023/09/10 10:03:13;;;;;;;5.97;5.57;;;;;;;;;;4996075;28;20023;-78
2023/09/10 10:05:39;;;;;;;5.72;5.28;;;;;;;;;;4994639;28;20027;-78
2023/09/10 10:08:05;;;;;;;6.10;5.60;;;;;;;;;;4984889;28;20107;-78
2023/09/10 10:10:31;;;;;;;6.30;5.70;;;;;;;;;;4996704;28;20022;-78
2023/09/10 10:12:58;;;;;;;6.32;5.80;;;;;;;;;;4995891;28;20041;-77
2023/09/10 10:15:24;;;;;;;5.45;5.10;;;;;;;;;;4997015;28;20507;-78
2023/09/10 10:17:52;;;;;;;6.13;5.53;;;;;;;;;;4997175;28;20491;-78
2023/09/10 10:20:19;;;;;;;6.20;5.70;;;;;;;;;;4994387;28;20093;-77
2023/09/10 10:22:45;;;;;;;5.47;5.07;;;;;;;;;;4995195;28;20424;-77
2023/09/10 10:25:12;;;;;;;5.65;5.25;;;;;;;;;;4995665;28;20216;-78
2023/09/10 10:27:40;;;;;;;5.07;4.75;;;;;;;;;;4994022;28;20026;-78
2023/09/10 10:30:07;;;;;;;6.07;5.57;;;;;;;;;;4995095;28;20485;-78
2023/09/10 10:32:39;;;;;;;6.20;5.60;;;;;;;;;;4996160;28;20033;-77
2023/09/10 10:35:05;;;;;;;6.38;5.63;;;;;;;;;;4994917;28;20058;-78
2023/09/10 10:37:35;;;;;;;6.88;6.28;;;;;;;;;;4993676;28;20022;-79
2023/09/10 10:40:06;;;;;;;6.30;5.80;;;;;;;;;;4993265;28;20022;-79
2023/09/10 10:42:45;;;;;;;5.65;5.25;;;;;;;;;;4993482;28;20101;-78
2023/09/10 10:45:15;;;;;;;6.55;5.95;;;;;;;;;;4975778;28;20039;-78
2023/09/10 10:47:42;;;;;;;5.72;5.22;;;;;;;;;;4975344;28;20080;-78
2023/09/10 10:50:12;;;;;;;6.35;5.85;;;;;;;;;;4977914;28;20031;-78
2023/09/10 10:52:48;;;;;;;5.75;5.32;;;;;;;;;;4975254;28;20034;-80
2023/09/10 10:55:14;;;;;;;6.45;5.95;;;;;;;;;;4994745;28;20113;-78
2023/09/10 10:57:40;;;;;;;5.47;5.07;;;;;;;;;;4993719;28;20022;-77
2023/09/10 11:00:09;;;;;;;6.18;5.68;;;;;;;;;;4995956;28;20050;-77
2023/09/10 11:02:35;;;;;;;5.82;5.32;;;;;;;;;;4995674;28;20026;-78
2023/09/10 11:05:03;;;;;;;5.90;5.40;;;;;;;;;;4993804;28;20023;-78
2023/09/10 11:07:29;;;;;;;6.10;5.60;;;;;;;;;;4994222;28;20029;-77
2023/09/10 11:09:57;;;;;;;5.95;5.45;;;;;;;;;;4994374;28;20021;-76
2023/09/10 11:12:24;;;;;;;5.95;5.38;;;;;;;;;;4994477;28;20385;-78
2023/09/10 11:15:03;;;;;;;5.97;5.53;;;;;;;;;;4993675;28;20039;-78
2023/09/10 11:17:33;;;;;;;5.90;5.50;;;;;;;;;;4993600;28;20054;-79
2023/09/10 11:20:08;;;;;;;6.32;5.72;;;;;;;;;;4994192;28;20064;-79
2023/09/10 11:22:53;;;;;;;5.60;5.20;;;;;;;;;;4993337;28;20033;-78
2023/09/10 11:25:28;;;;;;;5.40;5.00;;;;;;;;;;4982484;28;20390;-79
2023/09/10 11:27:54;;;;;;;5.57;5.18;;;;;;;;;;4974754;28;20561;-79
2023/09/10 11:30:21;;;;;;;5.25;4.82;;;;;;;;;;4974470;28;20525;-78
2023/09/10 11:32:50;;;;;;;5.18;4.88;;;;;;;;;;4974742;28;20038;-78
2023/09/10 11:35:20;;;;;;;5.60;4.90;;;;;;;;;;4990166;28;20049;-78
2023/09/10 11:37:51;;;;;;;5.50;5.10;;;;;;;;;;4992256;28;20072;-78
2023/09/10 11:40:20;;;;;;;5.97;5.53;;;;;;;;;;4978261;28;20050;-79
2023/09/10 11:42:47;;;;;;;5.95;5.38;;;;;;;;;;4974490;28;20054;-78
2023/09/10 11:45:13;;;;;;;6.97;5.45;;;;;;;;;;4974931;28;20082;-77
2023/09/10 11:47:43;;;;;;;5.72;5.30;;;;;;;;;;4975193;28;21831;-78
2023/09/10 11:50:10;;;;;;;5.47;4.97;;;;;;;;;;4974238;28;20425;-78
2023/09/10 11:52:37;;;;;;;5.93;5.40;;;;;;;;;;4974542;28;20638;-77
2023/09/10 11:55:05;;;;;;;5.75;5.25;;;;;;;;;;4973233;28;20050;-77
2023/09/10 11:57:31;;;;;;;5.38;4.97;;;;;;;;;;4973976;28;20023;-78
2023/09/10 11:59:57;;;;;;;6.22;5.63;;;;;;;;;;4974079;28;20035;-78
2023/09/10 12:02:24;;;;;;;6.00;5.50;;;;;;;;;;4973589;28;20019;-77
2023/09/10 12:04:50;;;;;;;11.30;5.78;;;;;;;;;;4980916;28;20026;-77
2023/09/10 12:07:16;;;;;;;8.15;5.47;;;;;;;;;;4991876;28;20440;-78
2023/09/10 12:09:42;;;;;;;6.30;5.80;;;;;;;;;;5005747;28;20041;-77
2023/09/10 12:12:12;;;;;;;5.30;4.90;;;;;;;;;;5013666;28;20531;-78
2023/09/10 12:14:38;;;;;;;6.85;5.35;;;;;;;;;;5013489;28;20091;-78
2023/09/10 12:17:04;;;;;;;5.85;5.35;;;;;;;;;;5013059;28;20489;-78
2023/09/10 12:19:31;;;;;;;6.25;5.20;;;;;;;;;;5011976;28;20026;-78
2023/09/10 12:21:57;;;;;;;5.53;4.97;;;;;;;;;;4991492;28;20055;-78
2023/09/10 12:24:24;;;;;;;6.55;5.32;;;;;;;;;;4974879;28;20381;-78
2023/09/10 12:26:50;;;;;;;5.68;5.15;;;;;;;;;;4974031;28;20030;-79
2023/09/10 12:29:16;;;;;;;5.45;4.97;;;;;;;;;;4978370;28;20362;-79
2023/09/10 12:31:42;;;;;;;9.65;5.32;;;;;;;;;;4978004;28;20023;-77
2023/09/10 12:34:09;;;;;;;5.80;5.28;;;;;;;;;;4986649;28;20417;-77
2023/09/10 12:36:37;;;;;;;5.35;4.90;;;;;;;;;;4999159;28;20044;-76
2023/09/10 12:39:04;;;;;;;5.43;4.93;;;;;;;;;;5005643;28;20031;-76
2023/09/10 12:41:30;;;;;;;5.43;4.95;;;;;;;;;;4996593;28;20007;-78
2023/09/10 12:43:56;;;;;;;6.15;5.00;;;;;;;;;;4999189;28;20022;-77
2023/09/10 12:46:23;;;;;;;6.13;5.53;;;;;;;;;;4998141;28;20026;-76
2023/09/10 12:48:49;;;;;;;5.60;5.10;;;;;;;;;;5000147;28;20050;-77
2023/09/10 12:51:16;;;;;;;5.45;5.05;;;;;;;;;;5001713;28;20038;-77
2023/09/10 12:53:42;;;;;;;5.20;4.80;;;;;;;;;;4988698;28;20390;-77
2023/09/10 12:56:08;;;;;;;5.65;5.15;;;;;;;;;;4977366;28;20061;-78
2023/09/10 12:58:34;;;;;;;5.57;5.18;;;;;;;;;;4996191;28;20026;-77
2023/09/10 13:01:00;;;;;;;5.65;5.15;;;;;;;;;;4996672;28;20547;-77
2023/09/10 13:03:28;;;;;;;5.80;5.28;;;;;;;;;;4996343;28;20172;-77
2023/09/10 13:05:54;;;;;;;5.70;5.30;;;;;;;;;;4996124;28;20033;-78
2023/09/10 13:08:20;;;;;;;5.70;5.20;;;;;;;;;;5002712;28;20076;-78
2023/09/10 13:10:47;;;;;;;5.93;5.38;;;;;;;;;;4978010;28;20043;-79
2023/09/10 13:13:13;;;;;;;5.40;4.90;;;;;;;;;;4976923;28;20035;-78
2023/09/10 13:15:39;;;;;;;5.70;5.22;;;;;;;;;;4976350;28;20055;-78
2023/09/10 13:18:05;;;;;;;5.70;5.25;;;;;;;;;;4974764;28;20035;-78
2023/09/10 13:20:31;;;;;;;5.47;4.85;;;;;;;;;;4974902;28;20035;-78
2023/09/10 13:22:57;;;;;;;5.10;4.70;;;;;;;;;;4978496;28;20045;-77
2023/09/10 13:25:23;;;;;;;5.35;4.88;;;;;;;;;;4994584;28;20030;-78
2023/09/10 13:27:49;;;;;;;5.80;5.25;;;;;;;;;;4988611;28;20105;-79
2023/09/10 13:30:16;;;;;;;5.70;5.20;;;;;;;;;;4976351;28;20035;-77
2023/09/10 13:32:42;;;;;;;5.85;5.00;;;;;;;;;;4984065;28;20042;-77
2023/09/10 13:35:08;;;;;;;5.82;5.32;;;;;;;;;;4999552;28;20035;-77
2023/09/10 13:37:34;;;;;;;5.55;5.15;;;;;;;;;;5005957;28;20029;-78
2023/09/10 13:40:00;;;;;;;5.28;4.80;;;;;;;;;;5001677;28;20156;-78
2023/09/10 13:42:26;;;;;;;5.63;4.68;;;;;;;;;;4995181;28;20038;-78
2023/09/10 13:44:52;;;;;;;5.03;4.63;;;;;;;;;;4981762;28;20063;-78
2023/09/10 13:47:18;;;;;;;5.40;4.90;;;;;;;;;;4976940;28;20470;-78
2023/09/10 13:49:44;;;;;;;4.80;4.40;;;;;;;;;;5000278;28;20073;-79
2023/09/10 13:52:11;;;;;;;4.80;4.50;;;;;;;;;;5000162;28;20022;-80
2023/09/10 13:54:37;;;;;;;4.75;4.35;;;;;;;;;;5001261;28;20060;-80
2023/09/10 13:57:04;;;;;;;5.72;4.78;;;;;;;;;;5001886;28;20069;-80
2023/09/10 13:59:38;;;;;;;4.82;4.45;;;;;;;;;;5002243;28;20022;-80
2023/09/10 14:02:05;;;;;;;6.05;5.50;;;;;;;;;;4997694;28;20038;-77
2023/09/10 14:04:31;;;;;;;4.57;4.28;;;;;;;;;;5001873;28;20122;-79
2023/09/10 14:06:57;;;;;;;5.28;4.88;;;;;;;;;;4988353;28;20030;-78
2023/09/10 14:09:23;;;;;;;5.32;4.82;;;;;;;;;;4993736;28;20022;-79
2023/09/10 14:11:49;;;;;;;5.47;5.07;;;;;;;;;;4995969;28;20033;-78
2023/09/10 14:14:16;;;;;;;4.82;4.50;;;;;;;;;;5000403;28;20014;-77
2023/09/10 14:16:42;;;;;;;6.03;5.10;;;;;;;;;;5000775;28;20446;-78
2023/09/10 14:19:08;;;;;;;5.00;4.60;;;;;;;;;;4993800;28;20053;-78
2023/09/10 14:21:38;;;;;;;4.80;4.45;;;;;;;;;;4979469;28;20062;-78
2023/09/10 14:24:04;;;;;;;5.70;5.20;;;;;;;;;;4981552;28;20015;-78
2023/09/10 14:26:30;;;;;;;5.30;4.90;;;;;;;;;;4981946;28;20031;-79
2023/09/10 14:28:56;;;;;;;4.55;4.25;;;;;;;;;;4984136;28;20035;-79
2023/09/10 14:31:22;;;;;;;4.78;4.43;;;;;;;;;;4987265;28;20027;-78
2023/09/10 14:33:48;;;;;;;5.97;5.47;;;;;;;;;;4995568;28;20528;-79
2023/09/10 14:36:15;;;;;;;5.55;5.07;;;;;;;;;;5005370;28;20026;-78
2023/09/10 14:38:43;;;;;;;5.40;5.00;;;;;;;;;;5004492;28;20095;-80
2023/09/10 14:41:09;;;;;;;4.95;4.55;;;;;;;;;;5003794;28;20023;-78